Ede, Netherlands
Current Conditions -  °F | °C
As of 11:25 PM on Friday 24 Oct 2014 (Local Time) from EHDL Reporting Station
Drizzle Drizzle  
Wind Chill: 52°   Ceiling: 900
Heat Index: 52°   Visibility: 4mi
Dew Point: 50°   Wind: 12mph
Humidity: 94%   Direction: 190°S
Pressure: 30"   Gusts: NA
Location:  52.03°N, 5.66°E
Report Text: EHDL 242125Z AUTO 19010KT 6000 DZ FEW006 SCT008 BKN009 11/10 Q1016 GRN
Loading
Personal Weather Stations






























Interactive Weather Map New forecast layout! Learn more

10-Day Weather Forecast

Advertisements
Track Severe Weather on mobile